Wetterdaten: Mai 2016
Datum Temp Feuchte Luftdruck Regen Wind Richtung Sonnenschein UV Solar Windben
01.05.2016 10,1 C 79 % 1024,7 hPa 0,6 l/m 4,2 km/h N-NO 8,67 h 2,5 UV-I 418 W/m 9,6 km/h
02.05.2016 11,1 C 69 % 1021,1 hPa 0,0 l/m 1,9 km/h S-SO 12,42 h 2,9 UV-I 479 W/m 4,8 km/h
03.05.2016 9,9 C 74 % 1021,5 hPa 1,2 l/m 2,3 km/h N-NW 2,00 h 1,7 UV-I 200 W/m 8,4 km/h
04.05.2016 6,7 C 73 % 1028,6 hPa 0,0 l/m 0,8 km/h N-NO 8,67 h 2,9 UV-I 440 W/m 2,8 km/h
05.05.2016 11,7 C 65 % 1023,8 hPa 0,0 l/m 1,2 km/h SO 12,00 h 3,2 UV-I 467 W/m 4,0 km/h
06.05.2016 16,7 C 62 % 1014,8 hPa 0,0 l/m 11,0 km/h SO 12,58 h 3,2 UV-I 468 W/m 21,3 km/h
07.05.2016 18,1 C 48 % 1012,4 hPa 0,0 l/m 5,3 km/h SO 12,50 h 3,3 UV-I 482 W/m 10,4 km/h
08.05.2016 17,5 C 52 % 1014,0 hPa 0,0 l/m 9,5 km/h SO 12,58 h 3,1 UV-I 482 W/m 22,1 km/h
09.05.2016 17,8 C 58 % 1014,5 hPa 0,0 l/m 5,2 km/h O-SO 11,83 h 3,3 UV-I 477 W/m 13,7 km/h
10.05.2016 18,5 C 59 % 1009,5 hPa 0,0 l/m 6,1 km/h SO 9,42 h 2,9 UV-I 387 W/m 13,3 km/h
11.05.2016 18,3 C 60 % 1004,9 hPa 0,0 l/m 4,4 km/h SO 12,00 h 3,0 UV-I 441 W/m 20,9 km/h
12.05.2016 17,8 C 59 % 999,6 hPa 0,0 l/m 1,5 km/h NO 9,50 h 2,4 UV-I 382 W/m 6,4 km/h
13.05.2016 16,0 C 57 % 1002,0 hPa 0,0 l/m 2,1 km/h N-NO 10,08 h 2,7 UV-I 431 W/m 8,0 km/h
14.05.2016 7,0 C 73 % 1010,4 hPa 0,6 l/m 3,4 km/h N-NW 1,67 h 1,6 UV-I 205 W/m 14,9 km/h
15.05.2016 6,5 C 85 % 1016,8 hPa 8,0 l/m 2,7 km/h NW 2,25 h 2,1 UV-I 214 W/m 12,9 km/h
16.05.2016 7,9 C 76 % 1017,9 hPa 0,0 l/m 0,9 km/h NW 2,00 h 1,6 UV-I 215 W/m 11,3 km/h
17.05.2016 10,3 C 76 % 1015,1 hPa 0,2 l/m 1,2 km/h W-SW 3,67 h 2,1 UV-I 220 W/m 8,0 km/h
18.05.2016 12,9 C 74 % 1008,7 hPa 0,0 l/m 1,3 km/h S 2,50 h 1,8 UV-I 221 W/m 2,8 km/h
19.05.2016 13,1 C 79 % 1011,4 hPa 0,0 l/m 0,9 km/h SO 4,00 h 1,9 UV-I 243 W/m 3,6 km/h
20.05.2016 13,6 C 84 % 1017,0 hPa 0,0 l/m 1,7 km/h S-SW 4,17 h 1,9 UV-I 236 W/m 7,6 km/h
21.05.2016 15,9 C 75 % 1014,7 hPa 0,0 l/m 1,5 km/h S 8,42 h 2,3 UV-I 325 W/m 6,4 km/h
22.05.2016 17,5 C 78 % 1007,9 hPa 0,0 l/m 3,5 km/h S-SO 8,67 h 2,9 UV-I 365 W/m 8,4 km/h
23.05.2016 14,0 C 86 % 1009,4 hPa 1,2 l/m 0,4 km/h S-SO 4,00 h 1,6 UV-I 218 W/m 2,4 km/h
24.05.2016 9,9 C 92 % 1013,9 hPa 0,2 l/m 2,3 km/h NW 0,00 h 1,0 UV-I 80 W/m 8,9 km/h
25.05.2016 11,9 C 82 % 1015,0 hPa 0,0 l/m 0,0 km/h S-SW 1,42 h 1,4 UV-I 171 W/m 1,2 km/h
26.05.2016 14,8 C 76 % 1015,7 hPa 0,0 l/m 0,6 km/h N-NO 6,42 h 2,5 UV-I 333 W/m 2,4 km/h
27.05.2016 16,7 C 74 % 1014,9 hPa 0,0 l/m 0,3 km/h S-SO 3,42 h 2,4 UV-I 271 W/m 2,8 km/h
28.05.2016 18,1 C 75 % 1011,5 hPa 0,0 l/m 1,4 km/h SO 7,50 h 2,9 UV-I 391 W/m 6,9 km/h
29.05.2016 16,2 C 91 % 1006,0 hPa 1,6 l/m 0,8 km/h N-NO 0,83 h 1,3 UV-I 140 W/m 5,6 km/h
30.05.2016 16,9 C 92 % 1002,9 hPa 4,6 l/m 1,3 km/h N-NO 3,25 h 2,2 UV-I 233 W/m 8,9 km/h
31.05.2016 17,9 C 77 % 1010,1 hPa 0,0 l/m 2,1 km/h SO 6,50 h 2,8 UV-I 330 W/m 6,9 km/h
Min-Datum 04.05.16 24.05.16 12.05.16 9 Tage 01.05.16 - - - - 01.05.16
Min-Zeit 05:55 21:15 19:35 - 20:25 - - - - 20:25
Minimum -0,8 C 0 % 998,6 hPa - 0,0 km/h - - - - 0,0 km/h
Max-Datum 22.05.16 02.05.16 04.05.16 15.05.16 06.05.16 - 06.05.16 31.05.16 31.05.16 22.05.16
Max-Zeit 14:40 07:25 10:10 18:05 11:15 - 19:25 13:40 13:40 19:40
Maximum 25,7 C 97 % 1029,4 hPa 8,0 l/m 27,6 km/h
SO
- 12,50 h 7,9 UV-I 1266 W/m 54,7 km/h
SO
Durchschnitt 13,9 C 73 % 1013,2 hPa #18,2 l/m 2,6 km/h SO #204:55 h 2,4 UV-I 321 W/m 8,6 km/h

Durchschnitt Minimum Temp.8,5 C
Durchschnitt Maximum Temp.19,1 C